createdAt,value
2022-07-28T00:00:16.038Z,56.98
2022-07-28T00:03:03.606Z,56.76
2022-07-28T00:05:31.271Z,57.13
2022-07-28T00:07:58.586Z,56.81
2022-07-28T00:10:26.063Z,56.90
2022-07-28T00:12:54.219Z,56.06
2022-07-28T00:15:21.985Z,56.01
2022-07-28T00:17:50.152Z,55.69
2022-07-28T00:20:17.744Z,55.75
2022-07-28T00:22:45.609Z,55.36
2022-07-28T00:25:13.762Z,55.54
2022-07-28T00:27:41.446Z,55.66
2022-07-28T00:30:10.472Z,55.24
2022-07-28T00:32:38.019Z,55.25
2022-07-28T00:35:08.295Z,55.28
2022-07-28T00:37:39.832Z,55.08
2022-07-28T00:40:09.590Z,55.03
2022-07-28T00:42:36.969Z,54.87
2022-07-28T00:45:05.703Z,55.11
2022-07-28T00:47:33.885Z,54.85
2022-07-28T00:50:04.063Z,55.03
2022-07-28T00:52:32.274Z,55.31
2022-07-28T00:55:03.109Z,55.38
2022-07-28T00:57:30.573Z,55.93
2022-07-28T00:59:58.194Z,56.54
2022-07-28T01:02:25.941Z,56.52
2022-07-28T01:04:53.453Z,56.97
2022-07-28T01:08:07.919Z,57.09
2022-07-28T01:10:55.230Z,57.20
2022-07-28T01:13:38.497Z,57.48
2022-07-28T01:16:07.955Z,57.90
2022-07-28T01:19:05.175Z,57.84
2022-07-28T01:21:40.326Z,57.98
2022-07-28T01:24:21.087Z,57.86
2022-07-28T01:27:06.113Z,57.97
2022-07-28T01:30:22.766Z,58.41
2022-07-28T01:33:05.018Z,58.16
2022-07-28T01:35:45.610Z,57.93
2022-07-28T01:38:15.707Z,58.16
2022-07-28T01:40:50.210Z,58.16
2022-07-28T01:43:25.082Z,58.16
2022-07-28T01:45:55.859Z,58.28
2022-07-28T01:48:26.513Z,58.34
2022-07-28T01:50:56.384Z,58.51
2022-07-28T01:53:26.363Z,59.00
2022-07-28T01:55:56.231Z,59.00
2022-07-28T01:58:26.818Z,58.90
2022-07-28T02:00:57.184Z,59.02
2022-07-28T02:03:29.553Z,59.01
2022-07-28T02:05:59.731Z,59.18
2022-07-28T02:08:29.748Z,59.16
2022-07-28T02:11:18.245Z,58.92
2022-07-28T02:13:49.546Z,58.67
2022-07-28T02:16:23.157Z,58.93
2022-07-28T02:18:54.546Z,58.74
2022-07-28T02:21:33.420Z,58.73
2022-07-28T02:24:06.176Z,58.37
2022-07-28T02:26:41.547Z,58.34
2022-07-28T02:29:33.506Z,58.39
2022-07-28T02:32:27.061Z,58.13
2022-07-28T02:35:09.499Z,58.50
2022-07-28T02:37:41.422Z,58.77
2022-07-28T02:40:14.275Z,58.85
2022-07-28T02:42:44.443Z,59.08
2022-07-28T02:45:16.302Z,59.05
2022-07-28T02:47:53.474Z,59.33
2022-07-28T02:50:26.525Z,59.86
2022-07-28T02:53:00.550Z,59.93
2022-07-28T02:55:30.493Z,60.06
2022-07-28T02:58:00.881Z,60.14
2022-07-28T03:00:32.948Z,59.98
2022-07-28T03:03:01.023Z,60.22
2022-07-28T03:05:29.174Z,59.83
2022-07-28T03:07:58.826Z,59.88
2022-07-28T03:10:33.707Z,59.91
2022-07-28T03:13:05.448Z,59.99
2022-07-28T03:15:34.630Z,59.99
2022-07-28T03:18:05.017Z,59.94
2022-07-28T03:20:32.988Z,59.84
2022-07-28T03:23:00.461Z,60.28
2022-07-28T03:25:39.419Z,60.19
2022-07-28T03:28:14.072Z,60.38
2022-07-28T03:30:48.813Z,60.35
2022-07-28T03:33:16.801Z,60.79
2022-07-28T03:35:50.518Z,60.60
2022-07-28T03:38:26.659Z,60.53
2022-07-28T03:40:56.888Z,60.24
2022-07-28T03:43:27.575Z,60.44
2022-07-28T03:45:55.051Z,60.14
2022-07-28T03:48:29.214Z,60.36
2022-07-28T03:50:57.117Z,60.10
2022-07-28T03:53:29.614Z,60.31
2022-07-28T03:55:57.949Z,60.46
2022-07-28T03:58:28.610Z,61.00
2022-07-28T04:00:58.216Z,60.86
2022-07-28T04:03:43.171Z,60.97
2022-07-28T04:06:13.626Z,61.05
2022-07-28T04:08:41.505Z,61.20
2022-07-28T04:11:09.188Z,61.16
2022-07-28T04:13:37.347Z,61.26
2022-07-28T04:16:07.301Z,61.11
2022-07-28T04:18:35.650Z,60.99
2022-07-28T04:21:03.432Z,60.92
2022-07-28T04:23:31.068Z,60.71
2022-07-28T04:25:58.421Z,60.53
2022-07-28T04:28:26.249Z,60.29
2022-07-28T04:30:53.525Z,60.22
2022-07-28T04:33:20.958Z,60.40
2022-07-28T04:35:48.595Z,60.75
2022-07-28T04:38:18.107Z,60.89
2022-07-28T04:40:47.230Z,61.10
2022-07-28T04:43:15.462Z,60.42
2022-07-28T04:45:53.389Z,60.48
2022-07-28T04:48:24.169Z,60.68
2022-07-28T04:50:53.333Z,60.15
2022-07-28T04:53:22.579Z,60.21
2022-07-28T04:55:51.772Z,60.17
2022-07-28T04:58:21.091Z,59.88
2022-07-28T05:00:50.735Z,60.02
2022-07-28T05:03:19.967Z,60.03
2022-07-28T05:05:52.867Z,60.12
2022-07-28T05:08:26.163Z,59.85
2022-07-28T05:10:57.103Z,59.63
2022-07-28T05:13:30.318Z,59.44
2022-07-28T05:15:59.043Z,59.21
2022-07-28T05:18:26.440Z,58.63
2022-07-28T05:20:53.719Z,58.94
2022-07-28T05:23:20.947Z,58.80
2022-07-28T05:25:50.063Z,58.41
2022-07-28T05:28:17.423Z,58.51
2022-07-28T05:30:44.729Z,58.51
2022-07-28T05:33:12.148Z,58.32
2022-07-28T05:35:39.517Z,57.82
2022-07-28T05:38:10.779Z,57.16
2022-07-28T05:40:38.788Z,57.05
2022-07-28T05:43:06.082Z,56.76
2022-07-28T05:45:34.193Z,56.83
2022-07-28T05:48:01.637Z,57.57
2022-07-28T05:50:28.856Z,57.06
2022-07-28T05:52:56.094Z,57.15
2022-07-28T05:55:24.337Z,56.87
2022-07-28T05:57:51.677Z,56.60
2022-07-28T06:00:22.950Z,55.93
2022-07-28T06:02:51.414Z,56.08
2022-07-28T06:05:22.418Z,55.51
2022-07-28T06:07:51.785Z,55.44
2022-07-28T06:10:25.949Z,55.50
2022-07-28T06:12:56.333Z,55.10
2022-07-28T06:15:28.134Z,54.39
2022-07-28T06:17:56.007Z,54.58
2022-07-28T06:20:25.537Z,54.11
2022-07-28T06:22:55.243Z,53.58
2022-07-28T06:25:29.042Z,53.32
2022-07-28T06:27:59.737Z,51.31
2022-07-28T06:30:27.970Z,50.47
2022-07-28T06:32:56.751Z,50.09
2022-07-28T06:35:24.438Z,49.12
2022-07-28T06:37:53.121Z,49.29
2022-07-28T06:40:22.289Z,49.48
2022-07-28T06:42:50.540Z,50.02
2022-07-28T06:45:19.658Z,48.79
2022-07-28T06:47:50.948Z,49.03
2022-07-28T06:50:25.630Z,49.14
2022-07-28T06:52:58.758Z,48.32
2022-07-28T06:55:35.236Z,47.58
2022-07-28T06:58:04.466Z,46.83
2022-07-28T07:00:33.161Z,46.95
2022-07-28T07:03:01.160Z,46.46
2022-07-28T07:05:32.409Z,46.40
2022-07-28T07:08:00.760Z,46.75
2022-07-28T07:10:28.073Z,46.94
2022-07-28T07:12:55.376Z,46.69
2022-07-28T07:15:22.859Z,45.55
2022-07-28T07:17:50.119Z,44.69
2022-07-28T07:20:18.405Z,44.29
2022-07-28T07:22:47.772Z,43.60
2022-07-28T07:25:18.538Z,43.57
2022-07-28T07:27:47.147Z,43.47
2022-07-28T07:30:16.840Z,44.08
2022-07-28T07:32:45.014Z,43.59
2022-07-28T07:35:12.755Z,42.71
2022-07-28T07:37:40.999Z,43.60
2022-07-28T07:40:09.727Z,43.30
2022-07-28T07:42:37.138Z,42.70
2022-07-28T07:45:05.411Z,42.32
2022-07-28T07:47:32.860Z,41.94
2022-07-28T07:50:03.925Z,42.28
2022-07-28T07:52:32.539Z,41.67
2022-07-28T07:54:59.977Z,42.03
2022-07-28T07:57:27.279Z,41.72
2022-07-28T07:59:54.691Z,41.02
2022-07-28T08:02:21.955Z,40.87
2022-07-28T08:04:50.450Z,40.87
2022-07-28T08:07:17.975Z,40.99
2022-07-28T08:09:49.311Z,41.38
2022-07-28T08:12:16.621Z,40.63
2022-07-28T08:14:44.086Z,40.49
2022-07-28T08:17:15.128Z,40.64
2022-07-28T08:19:47.324Z,41.02
2022-07-28T08:22:15.901Z,40.44
2022-07-28T08:24:43.644Z,40.34
2022-07-28T08:27:10.846Z,39.96
2022-07-28T08:29:38.296Z,40.34
2022-07-28T08:32:06.079Z,39.97
2022-07-28T08:34:34.544Z,38.62
2022-07-28T08:37:05.533Z,39.83
2022-07-28T08:39:35.426Z,39.51
2022-07-28T08:42:09.161Z,38.53
2022-07-28T08:44:52.777Z,38.61
2022-07-28T08:47:21.221Z,39.34
2022-07-28T08:49:51.533Z,39.13
2022-07-28T08:52:24.274Z,38.49
2022-07-28T08:54:56.437Z,37.84
2022-07-28T08:57:37.679Z,37.14
2022-07-28T09:00:06.855Z,37.69
2022-07-28T09:02:38.584Z,37.46
2022-07-28T09:05:07.227Z,37.91
2022-07-28T09:07:39.174Z,37.92
2022-07-28T09:10:08.007Z,37.55
2022-07-28T09:12:36.508Z,37.63
2022-07-28T09:15:05.228Z,38.13
2022-07-28T09:17:34.228Z,37.00
2022-07-28T09:20:04.275Z,36.65
2022-07-28T09:22:36.528Z,36.37
2022-07-28T09:25:04.754Z,37.42
2022-07-28T09:27:45.176Z,37.15
2022-07-28T09:30:13.058Z,37.41
2022-07-28T09:32:40.484Z,36.18
2022-07-28T09:35:29.652Z,28.45
2022-07-28T09:38:00.547Z,20.33
2022-07-28T09:40:27.939Z,16.53
2022-07-28T09:42:58.301Z,13.48
2022-07-28T09:45:29.060Z,12.13
2022-07-28T09:48:14.362Z,11.20
2022-07-28T09:50:43.393Z,10.00
2022-07-28T09:53:28.150Z,8.58
2022-07-28T09:56:01.963Z,8.42
2022-07-28T09:58:30.731Z,7.80
2022-07-28T10:01:21.013Z,7.66
2022-07-28T10:04:13.636Z,6.70
2022-07-28T10:06:41.192Z,6.60
2022-07-28T10:09:12.731Z,6.71
2022-07-28T10:11:41.852Z,5.62
2022-07-28T10:14:09.907Z,5.58
2022-07-28T10:16:52.770Z,5.14
2022-07-28T10:19:20.439Z,5.27
2022-07-28T10:21:54.275Z,5.47
2022-07-28T10:24:25.051Z,5.30
2022-07-28T10:26:58.305Z,5.40
2022-07-28T10:29:27.584Z,5.08
2022-07-28T10:32:05.209Z,5.07
2022-07-28T10:34:47.733Z,4.93
2022-07-28T10:37:22.098Z,4.88
2022-07-28T10:40:09.974Z,4.81
2022-07-28T10:42:43.280Z,4.80
2022-07-28T10:45:12.729Z,4.46
2022-07-28T10:47:39.961Z,6.58
2022-07-28T10:50:08.798Z,8.53
2022-07-28T10:52:50.210Z,10.94
2022-07-28T10:55:31.759Z,12.15
2022-07-28T10:58:25.111Z,13.48
2022-07-28T11:00:57.321Z,14.07
2022-07-28T11:03:45.133Z,15.86
2022-07-28T11:06:39.589Z,16.45
2022-07-28T11:09:15.916Z,16.92
2022-07-28T11:11:59.484Z,17.73
2022-07-28T11:14:27.043Z,18.06
2022-07-28T11:17:10.080Z,18.95
2022-07-28T11:20:16.339Z,19.59
2022-07-28T11:22:34.057Z,19.60
2022-07-28T11:25:18.009Z,21.02
2022-07-28T11:27:50.719Z,21.05
2022-07-28T11:30:36.560Z,21.04
2022-07-28T11:33:11.301Z,21.71
2022-07-28T11:35:41.766Z,22.14
2022-07-28T11:38:14.623Z,22.51
2022-07-28T11:40:46.969Z,22.76
2022-07-28T11:43:35.294Z,23.01
2022-07-28T11:46:07.651Z,22.73
2022-07-28T11:48:44.869Z,22.72
2022-07-28T11:51:14.080Z,22.87
2022-07-28T11:53:53.239Z,22.39
2022-07-28T11:56:36.119Z,22.70
2022-07-28T11:59:08.806Z,22.48
2022-07-28T12:01:38.133Z,22.44
2022-07-28T12:04:13.509Z,22.22
2022-07-28T12:06:51.297Z,22.58
2022-07-28T12:09:25.096Z,22.19
2022-07-28T12:11:55.875Z,23.32
2022-07-28T12:14:24.232Z,22.58
2022-07-28T12:16:52.429Z,22.49
2022-07-28T12:19:21.968Z,23.00
2022-07-28T12:21:55.576Z,22.25
2022-07-28T12:24:45.047Z,23.50
2022-07-28T12:27:16.939Z,23.36
2022-07-28T12:29:56.410Z,23.30
2022-07-28T12:32:32.751Z,23.44
2022-07-28T12:35:00.295Z,23.53
2022-07-28T12:37:29.019Z,23.50
2022-07-28T12:39:56.554Z,22.70
2022-07-28T12:42:25.243Z,22.73
2022-07-28T12:45:01.411Z,22.95
2022-07-28T12:47:28.930Z,22.26
2022-07-28T12:50:10.132Z,22.78
2022-07-28T12:52:37.905Z,22.74
2022-07-28T12:55:24.831Z,22.78
2022-07-28T12:57:52.938Z,23.57
2022-07-28T13:00:26.237Z,23.11
2022-07-28T13:02:57.968Z,23.76
2022-07-28T13:05:32.897Z,23.71
2022-07-28T13:08:03.530Z,23.55
2022-07-28T13:10:32.530Z,23.49
2022-07-28T13:13:08.372Z,23.87
2022-07-28T13:15:36.021Z,23.80
2022-07-28T13:18:05.092Z,23.17
2022-07-28T13:20:47.576Z,23.60
2022-07-28T13:23:14.997Z,23.33
2022-07-28T13:25:42.400Z,23.43
2022-07-28T13:28:36.265Z,23.25
2022-07-28T13:31:03.784Z,23.05
2022-07-28T13:33:31.068Z,23.48
2022-07-28T13:35:58.829Z,24.03
2022-07-28T13:38:26.324Z,23.84
2022-07-28T13:40:53.563Z,24.30
2022-07-28T13:43:20.912Z,25.20
2022-07-28T13:45:48.444Z,24.72
2022-07-28T13:48:15.765Z,24.48
2022-07-28T13:50:43.034Z,25.01
2022-07-28T13:53:10.464Z,25.01
2022-07-28T13:55:38.147Z,25.38
2022-07-28T13:58:08.751Z,25.44
2022-07-28T14:00:36.577Z,25.59
2022-07-28T14:03:04.463Z,26.25
2022-07-28T14:05:35.812Z,26.61
2022-07-28T14:08:03.682Z,27.03
2022-07-28T14:10:30.987Z,27.44
2022-07-28T14:12:58.247Z,27.34
2022-07-28T14:15:25.772Z,27.89
2022-07-28T14:17:53.179Z,28.42
2022-07-28T14:20:20.549Z,28.71
2022-07-28T14:22:48.044Z,29.01
2022-07-28T14:25:21.200Z,28.72
2022-07-28T14:27:51.712Z,28.66
2022-07-28T14:30:21.053Z,27.82
2022-07-28T14:32:48.942Z,28.03
2022-07-28T14:35:16.676Z,28.20
2022-07-28T14:38:35.181Z,27.67
2022-07-28T14:40:32.193Z,27.47
2022-07-28T14:43:00.232Z,27.21
2022-07-28T14:45:29.491Z,27.13
2022-07-28T14:47:57.056Z,27.21
2022-07-28T14:50:24.884Z,27.62
2022-07-28T14:52:52.902Z,28.57
2022-07-28T14:55:20.812Z,28.16
2022-07-28T14:57:54.715Z,28.54
2022-07-28T15:00:26.991Z,28.47
2022-07-28T15:02:55.860Z,28.04
2022-07-28T15:05:23.782Z,28.37
2022-07-28T15:07:52.433Z,28.80
2022-07-28T15:10:20.878Z,28.91
2022-07-28T15:12:50.314Z,29.52
2022-07-28T15:15:17.922Z,29.37
2022-07-28T15:17:45.171Z,29.71
2022-07-28T15:20:12.914Z,29.96
2022-07-28T15:22:40.334Z,30.07
2022-07-28T15:25:08.241Z,29.99
2022-07-28T15:27:35.718Z,30.14
2022-07-28T15:30:03.571Z,29.88
2022-07-28T15:32:33.503Z,29.74
2022-07-28T15:35:01.312Z,29.44
2022-07-28T15:37:28.687Z,29.20
2022-07-28T15:39:56.057Z,29.96
2022-07-28T15:42:23.605Z,30.01
2022-07-28T15:44:52.820Z,30.01
2022-07-28T15:47:20.124Z,29.80
2022-07-28T15:49:47.831Z,30.15
2022-07-28T15:52:15.113Z,30.28
2022-07-28T15:54:43.178Z,30.16
2022-07-28T15:57:12.105Z,29.72
2022-07-28T15:59:49.414Z,30.03
2022-07-28T16:02:19.380Z,30.47
2022-07-28T16:04:52.226Z,30.28
2022-07-28T16:07:23.631Z,30.53
2022-07-28T16:09:54.996Z,30.72
2022-07-28T16:12:25.555Z,31.38
2022-07-28T16:14:54.153Z,31.76
2022-07-28T16:17:24.804Z,31.83
2022-07-28T16:19:53.969Z,31.55
2022-07-28T16:22:21.858Z,31.72
2022-07-28T16:24:50.871Z,32.11
2022-07-28T16:27:18.804Z,32.14
2022-07-28T16:29:46.459Z,32.46
2022-07-28T16:32:13.779Z,32.77
2022-07-28T16:34:42.257Z,32.61
2022-07-28T16:37:09.557Z,32.79
2022-07-28T16:39:36.834Z,32.75
2022-07-28T16:42:04.568Z,33.07
2022-07-28T16:44:32.322Z,33.11
2022-07-28T16:46:59.697Z,33.01
2022-07-28T16:49:27.961Z,33.44
2022-07-28T16:51:55.633Z,33.54
2022-07-28T16:54:23.350Z,33.20
2022-07-28T16:56:52.252Z,33.10
2022-07-28T16:59:19.498Z,33.80
2022-07-28T17:01:46.992Z,34.32
2022-07-28T17:04:15.720Z,34.62
2022-07-28T17:06:43.638Z,34.81
2022-07-28T17:09:11.532Z,34.36
2022-07-28T17:11:40.877Z,34.72
2022-07-28T17:14:09.713Z,34.79
2022-07-28T17:16:37.447Z,35.23
2022-07-28T17:19:05.293Z,35.17
2022-07-28T17:21:32.597Z,35.30
2022-07-28T17:23:59.799Z,35.59
2022-07-28T17:29:14.719Z,36.38
2022-07-28T17:31:43.511Z,36.81
2022-07-28T17:34:10.940Z,37.31
2022-07-28T17:36:42.046Z,37.38
2022-07-28T17:39:09.853Z,37.59
2022-07-28T17:41:37.159Z,37.56
2022-07-28T17:44:05.802Z,37.62
2022-07-28T17:46:35.145Z,37.57
2022-07-28T17:49:03.399Z,37.86
2022-07-28T17:51:30.922Z,37.53
2022-07-28T17:53:58.460Z,37.97
2022-07-28T17:56:26.648Z,38.23
2022-07-28T17:58:56.048Z,38.06
2022-07-28T18:01:23.617Z,38.42
2022-07-28T18:03:58.866Z,38.54
2022-07-28T18:06:35.897Z,38.90
2022-07-28T18:09:10.733Z,39.18
2022-07-28T18:11:56.999Z,39.55
2022-07-28T18:14:27.669Z,40.51
2022-07-28T18:16:56.043Z,41.14
2022-07-28T18:19:23.405Z,41.68
2022-07-28T18:21:51.064Z,41.78
2022-07-28T18:24:22.305Z,42.24
2022-07-28T18:26:52.160Z,42.42
2022-07-28T18:29:21.634Z,42.13
2022-07-28T18:31:51.700Z,42.57
2022-07-28T18:34:20.828Z,42.58
2022-07-28T18:36:51.059Z,42.50
2022-07-28T18:39:18.512Z,42.52
2022-07-28T18:41:47.754Z,42.92
2022-07-28T18:44:17.762Z,43.15
2022-07-28T18:46:45.760Z,43.64
2022-07-28T18:49:13.722Z,43.56
2022-07-28T18:51:44.881Z,43.92
2022-07-28T18:54:18.691Z,44.10
2022-07-28T18:56:47.811Z,44.56
2022-07-28T18:59:15.473Z,44.74
2022-07-28T19:01:43.057Z,44.42
2022-07-28T19:04:10.912Z,44.59
2022-07-28T19:06:38.234Z,45.05
2022-07-28T19:09:05.707Z,45.24
2022-07-28T19:11:33.689Z,45.22
2022-07-28T19:14:01.750Z,44.87
2022-07-28T19:16:29.054Z,45.29
2022-07-28T19:18:56.514Z,45.10
2022-07-28T19:21:24.549Z,45.36
2022-07-28T19:23:53.087Z,45.35
2022-07-28T19:26:21.787Z,45.31
2022-07-28T19:28:49.524Z,45.58
2022-07-28T19:31:16.915Z,45.64
2022-07-28T19:33:44.422Z,46.13
2022-07-28T19:36:15.872Z,46.50
2022-07-28T19:38:44.203Z,47.07
2022-07-28T19:41:15.696Z,47.10
2022-07-28T19:43:43.317Z,47.51
2022-07-28T19:46:10.965Z,47.57
2022-07-28T19:48:39.410Z,47.70
2022-07-28T19:51:06.863Z,48.20
2022-07-28T19:53:34.530Z,47.99
2022-07-28T19:56:08.809Z,48.21
2022-07-28T19:58:36.898Z,48.61
2022-07-28T20:01:06.100Z,48.91
2022-07-28T20:04:00.994Z,49.36
2022-07-28T20:06:25.065Z,49.43
2022-07-28T20:08:54.317Z,49.83
2022-07-28T20:11:21.740Z,50.25
2022-07-28T20:13:49.719Z,50.09
2022-07-28T20:16:18.084Z,50.50
2022-07-28T20:18:45.402Z,50.69
2022-07-28T20:21:13.133Z,50.98
2022-07-28T20:23:41.179Z,50.67
2022-07-28T20:26:10.183Z,51.04
2022-07-28T20:28:38.257Z,51.55
2022-07-28T20:31:07.465Z,51.48
2022-07-28T20:33:34.896Z,52.17
2022-07-28T20:36:02.766Z,52.50
2022-07-28T20:38:30.142Z,52.01
2022-07-28T20:40:57.491Z,52.96
2022-07-28T20:43:36.265Z,52.67
2022-07-28T20:46:05.498Z,53.05
2022-07-28T20:48:35.071Z,53.10
2022-07-28T20:51:02.504Z,54.01
2022-07-28T20:53:29.811Z,53.59
2022-07-28T20:55:57.373Z,53.78
2022-07-28T20:58:24.637Z,54.01
2022-07-28T21:00:52.063Z,54.12
2022-07-28T21:03:19.847Z,54.91
2022-07-28T21:05:47.043Z,55.39
2022-07-28T21:08:15.982Z,55.72
2022-07-28T21:10:45.244Z,55.48
2022-07-28T21:13:12.988Z,55.48
2022-07-28T21:15:40.352Z,55.86
2022-07-28T21:18:07.977Z,55.62
2022-07-28T21:20:35.349Z,56.14
2022-07-28T21:23:03.372Z,56.13
2022-07-28T21:25:34.823Z,56.65
2022-07-28T21:28:20.820Z,56.80
2022-07-28T21:30:48.330Z,57.13
2022-07-28T21:33:22.420Z,56.47
2022-07-28T21:35:50.936Z,57.05
2022-07-28T21:38:18.336Z,57.30
2022-07-28T21:40:45.631Z,57.48
2022-07-28T21:43:13.197Z,57.64
2022-07-28T21:45:40.463Z,57.86
2022-07-28T21:48:07.780Z,57.86
2022-07-28T21:50:40.043Z,58.10
2022-07-28T21:53:07.301Z,58.87
2022-07-28T21:55:34.992Z,59.05
2022-07-28T21:58:03.130Z,59.08
2022-07-28T22:00:30.434Z,59.16
2022-07-28T22:02:57.905Z,59.36
2022-07-28T22:05:28.449Z,59.60
2022-07-28T22:07:56.312Z,59.75
2022-07-28T22:10:23.698Z,59.76
2022-07-28T22:12:52.097Z,60.10
2022-07-28T22:15:19.517Z,60.67
2022-07-28T22:17:46.741Z,60.47
2022-07-28T22:20:15.260Z,61.08
2022-07-28T22:22:42.764Z,60.83
2022-07-28T22:25:10.783Z,60.76
2022-07-28T22:27:39.070Z,60.89
2022-07-28T22:30:07.549Z,60.81
2022-07-28T22:32:34.832Z,60.96
2022-07-28T22:35:02.788Z,61.32
2022-07-28T22:37:30.026Z,61.21
2022-07-28T22:39:57.311Z,61.09
2022-07-28T22:42:24.785Z,61.10
2022-07-28T22:44:52.040Z,61.45
2022-07-28T22:47:19.475Z,62.47
2022-07-28T22:49:47.130Z,63.08
2022-07-28T22:52:14.645Z,63.04
2022-07-28T22:57:27.021Z,62.79
2022-07-28T22:59:54.841Z,64.14
2022-07-28T23:02:25.217Z,64.34
2022-07-28T23:04:52.814Z,64.30
2022-07-28T23:07:20.190Z,64.40
2022-07-28T23:10:09.931Z,64.82
2022-07-28T23:12:37.985Z,64.78
2022-07-28T23:15:06.913Z,65.40
2022-07-28T23:17:34.575Z,65.43
2022-07-28T23:20:05.776Z,66.24
2022-07-28T23:22:33.052Z,65.87
2022-07-28T23:25:01.104Z,65.96
2022-07-28T23:27:28.362Z,66.44
2022-07-28T23:29:55.550Z,66.37
2022-07-28T23:32:22.952Z,66.53
2022-07-28T23:34:50.205Z,66.62
2022-07-28T23:37:17.502Z,66.61
2022-07-28T23:39:45.040Z,67.49
2022-07-28T23:42:12.394Z,67.47
2022-07-28T23:44:39.662Z,67.62
2022-07-28T23:47:07.484Z,67.48
2022-07-28T23:49:34.969Z,67.23
2022-07-28T23:52:02.207Z,67.69
2022-07-28T23:54:29.736Z,67.03
2022-07-28T23:56:57.416Z,67.75
2022-07-28T23:59:24.963Z,67.71
